Time;durP1;ratioP1;P1;durP2;ratioP2;P2;SDS_P1;SDS_P2;PMS_P1;PMS_P2;Temp;Humidity;BMP_temperature;BMP_pressure;BME280_temperature;BME280_humidity;BME280_pressure;Samples;Min_cycle;Max_cycle;Signal;HPM_P1;HPM_P2
2021/12/31 11:02:58;;;;;;;4.30;2.80;;;15.30;99.90;;;;;;4658649;28;1843947;-68
2021/12/31 11:05:25;;;;;;;7.68;2.20;;;15.30;99.90;;;;;;4918026;29;20047;-67
2021/12/31 11:07:53;;;;;;;11.70;2.15;;;15.30;99.90;;;;;;4917955;29;20111;-67
2021/12/31 11:10:26;;;;;;;6.65;2.28;;;15.30;99.90;;;;;;4917920;29;20171;-67
2021/12/31 11:12:54;;;;;;;5.80;2.42;;;15.30;99.90;;;;;;4917909;29;20426;-67
2021/12/31 11:15:21;;;;;;;9.73;3.20;;;15.30;99.90;;;;;;4917691;29;20107;-67
2021/12/31 11:17:54;;;;;;;11.90;3.03;;;15.30;99.90;;;;;;4900867;29;20401;-68
2021/12/31 11:20:25;;;;;;;9.05;2.72;;;15.40;99.90;;;;;;4917721;29;20036;-67
2021/12/31 11:22:52;;;;;;;9.25;3.00;;;15.40;99.90;;;;;;4917789;29;20039;-67
2021/12/31 11:25:28;;;;;;;12.23;3.90;;;15.40;99.90;;;;;;4917641;29;20036;-67
2021/12/31 11:27:56;;;;;;;11.57;3.75;;;15.30;99.90;;;;;;4917721;29;20031;-67
2021/12/31 11:30:33;;;;;;;17.23;4.88;;;15.30;99.90;;;;;;4900634;29;20027;-67
2021/12/31 11:33:14;;;;;;;16.73;3.97;;;15.30;99.90;;;;;;4900802;29;20040;-67
2021/12/31 11:35:51;;;;;;;12.10;3.58;;;15.20;99.90;;;;;;4917523;29;20071;-67
2021/12/31 11:38:24;;;;;;;10.55;3.92;;;15.20;99.90;;;;;;4917777;29;20070;-67
2021/12/31 11:41:08;;;;;;;11.65;4.38;;;15.10;99.90;;;;;;4917701;29;20091;-67
2021/12/31 11:43:39;;;;;;;11.68;4.20;;;15.20;99.90;;;;;;4917441;29;20039;-67
2021/12/31 11:46:12;;;;;;;17.20;4.68;;;15.10;99.90;;;;;;4917261;29;20032;-67
2021/12/31 11:48:45;;;;;;;14.43;4.68;;;15.20;99.90;;;;;;4917732;29;20056;-67
2021/12/31 11:51:19;;;;;;;11.57;4.28;;;15.20;99.90;;;;;;4917389;29;20040;-67
2021/12/31 11:53:57;;;;;;;20.35;5.32;;;15.10;99.90;;;;;;4917742;29;20036;-67
2021/12/31 11:56:33;;;;;;;13.18;3.85;;;15.20;99.90;;;;;;4917200;29;20564;-67
2021/12/31 11:59:09;;;;;;;12.57;4.50;;;15.40;99.90;;;;;;4917137;29;20036;-67
2021/12/31 12:01:40;;;;;;;16.52;5.28;;;15.40;99.90;;;;;;4917324;29;20028;-67
2021/12/31 12:04:20;;;;;;;14.27;4.75;;;15.40;99.90;;;;;;4900277;29;20375;-67
2021/12/31 12:07:23;;;;;;;18.02;4.15;;;15.30;99.90;;;;;;4917264;29;20039;-67
2021/12/31 12:09:50;;;;;;;15.40;4.68;;;15.20;99.90;;;;;;4917113;29;20123;-68
2021/12/31 12:12:28;;;;;;;26.65;4.63;;;15.20;99.90;;;;;;4917018;29;20070;-67
2021/12/31 12:14:57;;;;;;;17.83;4.55;;;15.30;99.90;;;;;;4916989;29;20111;-68
2021/12/31 12:17:32;;;;;;;10.50;3.42;;;15.20;99.90;;;;;;4916976;29;20493;-67
2021/12/31 12:20:01;;;;;;;16.85;4.38;;;15.10;99.90;;;;;;4917079;29;20040;-68
2021/12/31 12:22:28;;;;;;;20.77;5.85;;;15.20;99.90;;;;;;4900118;29;20371;-68
2021/12/31 12:24:59;;;;;;;12.43;3.70;;;15.20;99.90;;;;;;4920202;29;20036;-67
2021/12/31 12:27:27;;;;;;;12.05;4.15;;;15.20;99.90;;;;;;4920789;29;20406;-68
2021/12/31 12:29:57;;;;;;;13.65;4.07;;;15.20;99.90;;;;;;4921000;29;20028;-67
2021/12/31 12:34:57;;;;;;;15.13;4.00;;;15.20;99.90;;;;;;4920756;29;20115;-67
2021/12/31 12:37:28;;;;;;;16.98;4.90;;;15.20;99.90;;;;;;4920879;29;20083;-68
2021/12/31 12:40:12;;;;;;;16.25;5.53;;;15.20;99.90;;;;;;4920632;29;20024;-68
2021/12/31 12:42:46;;;;;;;23.50;4.60;;;15.20;99.90;;;;;;4920594;29;20489;-67
2021/12/31 12:45:13;;;;;;;13.77;5.10;;;15.20;99.90;;;;;;4920540;29;20044;-67
2021/12/31 12:47:39;;;;;;;12.82;4.30;;;15.10;99.90;;;;;;4920555;29;20032;-67
2021/12/31 12:50:09;;;;;;;10.07;4.25;;;15.10;99.90;;;;;;4920422;29;20046;-67
2021/12/31 12:52:36;;;;;;;17.27;4.43;;;15.10;99.90;;;;;;4920385;29;20062;-67
2021/12/31 12:55:14;;;;;;;13.65;4.32;;;15.00;99.90;;;;;;4920411;29;20553;-68
2021/12/31 12:57:42;;;;;;;16.70;4.18;;;15.10;99.90;;;;;;4920303;29;20047;-67
2021/12/31 13:00:10;;;;;;;21.92;6.00;;;15.20;99.90;;;;;;4920396;29;20028;-68
2021/12/31 13:02:42;;;;;;;16.63;4.40;;;15.30;99.90;;;;;;4919785;29;20088;-67
2021/12/31 13:05:12;;;;;;;16.40;4.47;;;15.30;99.90;;;;;;4920263;29;20029;-68
2021/12/31 13:07:52;;;;;;;23.73;6.25;;;15.30;99.90;;;;;;4920040;29;20087;-68
2021/12/31 13:10:23;;;;;;;21.17;5.32;;;15.30;99.90;;;;;;4919923;29;20052;-67
2021/12/31 13:12:50;;;;;;;16.23;4.97;;;15.30;99.90;;;;;;4920001;29;20055;-67
2021/12/31 13:15:18;;;;;;;15.63;4.93;;;15.20;99.90;;;;;;4920028;29;20032;-67
2021/12/31 13:18:03;;;;;;;16.33;4.80;;;15.20;99.90;;;;;;4920210;29;20111;-67
2021/12/31 13:20:32;;;;;;;18.83;5.25;;;15.20;99.90;;;;;;4919987;29;20036;-67
2021/12/31 13:23:03;;;;;;;22.88;5.53;;;15.20;99.90;;;;;;4919945;29;20020;-67
2021/12/31 13:25:46;;;;;;;18.08;4.75;;;15.20;99.90;;;;;;4919804;29;20039;-67
2021/12/31 13:28:19;;;;;;;16.40;4.95;;;15.10;99.90;;;;;;4920092;29;20149;-67
2021/12/31 13:30:49;;;;;;;17.75;5.47;;;15.10;99.90;;;;;;4919662;29;20032;-67
2021/12/31 13:33:30;;;;;;;15.55;4.65;;;15.00;99.90;;;;;;4919639;29;20044;-67
2021/12/31 13:36:10;;;;;;;14.07;4.90;;;15.00;99.90;;;;;;4918718;29;20031;-68
2021/12/31 13:38:58;;;;;;;16.92;5.55;;;15.00;99.90;;;;;;4919968;29;20036;-67
2021/12/31 13:41:26;;;;;;;11.98;4.55;;;15.10;99.90;;;;;;4902639;29;20063;-67
2021/12/31 13:43:54;;;;;;;16.67;5.20;;;15.10;99.90;;;;;;4919519;29;20039;-68
2021/12/31 13:46:47;;;;;;;12.98;4.68;;;15.00;99.90;;;;;;4919448;29;20036;-68
2021/12/31 13:49:21;;;;;;;19.27;5.30;;;15.00;99.90;;;;;;4898132;29;20115;-67
2021/12/31 13:51:48;;;;;;;15.40;5.88;;;15.00;99.90;;;;;;4919597;29;20482;-67
2021/12/31 13:54:18;;;;;;;13.43;5.03;;;14.90;99.90;;;;;;4919270;29;20554;-68
2021/12/31 13:56:47;;;;;;;17.25;5.28;;;14.90;99.90;;;;;;4902758;29;20442;-68
2021/12/31 13:59:35;;;;;;;19.13;4.55;;;14.90;99.90;;;;;;4919215;29;20035;-68
2021/12/31 14:02:25;;;;;;;17.65;5.05;;;14.80;99.90;;;;;;4919034;29;20056;-68
2021/12/31 14:04:54;;;;;;;20.33;5.53;;;14.80;99.90;;;;;;4917570;29;20442;-68
2021/12/31 14:07:36;;;;;;;32.65;5.18;;;14.70;99.90;;;;;;4917916;29;20117;-68
2021/12/31 14:10:08;;;;;;;18.30;6.10;;;14.70;99.90;;;;;;4901407;29;20024;-67
2021/12/31 14:13:02;;;;;;;15.23;5.45;;;14.70;99.90;;;;;;4918652;29;20071;-67
2021/12/31 14:15:32;;;;;;;25.33;5.45;;;14.80;99.90;;;;;;4918606;29;20024;-69
2021/12/31 14:18:04;;;;;;;9.95;4.25;;;14.70;99.90;;;;;;4918808;29;20111;-68
2021/12/31 14:20:40;;;;;;;20.10;5.38;;;14.70;99.90;;;;;;4918997;29;20036;-68
2021/12/31 14:23:08;;;;;;;16.73;4.93;;;14.60;99.90;;;;;;4918762;29;20028;-68
2021/12/31 14:25:41;;;;;;;15.75;5.53;;;14.60;99.90;;;;;;4918770;29;20025;-68
2021/12/31 14:28:09;;;;;;;16.92;5.00;;;14.60;99.90;;;;;;4918731;29;20036;-68
2021/12/31 14:30:37;;;;;;;14.95;5.15;;;14.50;99.90;;;;;;4918711;29;20160;-67
2021/12/31 14:33:04;;;;;;;23.38;5.05;;;14.50;99.90;;;;;;4918779;29;20118;-68
2021/12/31 14:35:38;;;;;;;15.57;5.63;;;14.50;99.90;;;;;;4918763;29;20112;-67
2021/12/31 14:38:10;;;;;;;15.55;6.03;;;14.40;99.90;;;;;;4918754;29;20135;-68
2021/12/31 14:40:45;;;;;;;21.55;4.95;;;14.40;99.90;;;;;;4918676;29;20498;-67
2021/12/31 14:43:12;;;;;;;19.30;5.55;;;14.40;99.90;;;;;;4918737;29;20040;-68
2021/12/31 14:45:39;;;;;;;16.63;5.65;;;14.40;99.90;;;;;;4918721;29;20565;-67
2021/12/31 14:48:06;;;;;;;22.55;5.80;;;14.40;99.90;;;;;;4918313;29;20083;-67
2021/12/31 14:50:33;;;;;;;11.88;5.47;;;14.30;99.90;;;;;;4918618;29;20043;-67
2021/12/31 14:53:03;;;;;;;22.95;5.72;;;14.30;99.90;;;;;;4918368;29;20459;-67
2021/12/31 14:55:30;;;;;;;19.48;6.53;;;14.30;99.90;;;;;;4918448;29;20031;-67
2021/12/31 14:57:59;;;;;;;18.17;5.95;;;14.20;99.90;;;;;;4918070;29;20115;-67
2021/12/31 15:00:26;;;;;;;13.70;5.13;;;14.20;99.90;;;;;;4918520;29;20072;-67
2021/12/31 23:05:24;;;;;;;1357.20;581.97;;;10.50;99.90;;;;;;4711226;29;20056;-70
2021/12/31 23:07:51;;;;;;;979.17;451.95;;;10.40;99.90;;;;;;4897959;29;20494;-67
2021/12/31 23:10:17;;;;;;;768.92;345.08;;;10.40;99.90;;;;;;4899121;29;20469;-68
2021/12/31 23:12:43;;;;;;;1179.75;534.78;;;10.30;99.90;;;;;;4898688;29;20497;-61
2021/12/31 23:15:10;;;;;;;1309.47;557.42;;;10.30;99.90;;;;;;4898709;29;20494;-66
2021/12/31 23:17:40;;;;;;;1517.55;617.83;;;10.30;99.90;;;;;;4899037;29;20037;-65
2021/12/31 23:20:07;;;;;;;1628.32;663.25;;;10.40;99.90;;;;;;4898565;29;20064;-68
2021/12/31 23:22:34;;;;;;;777.97;337.15;;;10.40;99.90;;;;;;4898699;29;20024;-67
2021/12/31 23:25:00;;;;;;;809.28;363.17;;;10.30;99.90;;;;;;4898654;29;20036;-67
2021/12/31 23:27:29;;;;;;;799.15;340.40;;;10.30;99.90;;;;;;4898488;29;20029;-67
2021/12/31 23:29:55;;;;;;;986.17;465.35;;;10.30;99.90;;;;;;4898844;29;20044;-67
2021/12/31 23:32:25;;;;;;;811.75;364.45;;;10.30;99.90;;;;;;4898436;29;20036;-70
2021/12/31 23:34:58;;;;;;;602.13;251.60;;;10.20;99.90;;;;;;4898855;29;20479;-67
2021/12/31 23:37:27;;;;;;;645.85;253.30;;;10.10;99.90;;;;;;4898923;29;20159;-71
2021/12/31 23:40:00;;;;;;;636.13;250.23;;;10.10;99.90;;;;;;4898663;29;20112;-70
2021/12/31 23:42:44;;;;;;;384.02;134.27;;;10.10;99.90;;;;;;4898831;29;20173;-70
2021/12/31 23:45:14;;;;;;;255.70;87.10;;;10.10;99.90;;;;;;4881860;29;20032;-70
2021/12/31 23:47:41;;;;;;;187.55;65.28;;;10.20;99.90;;;;;;4898578;29;20470;-70
2021/12/31 23:50:10;;;;;;;158.18;53.85;;;10.10;99.90;;;;;;4898522;29;20029;-70
2021/12/31 23:52:37;;;;;;;172.00;57.40;;;10.10;99.90;;;;;;4881744;29;20044;-71
2021/12/31 23:55:04;;;;;;;130.50;46.97;;;10.10;99.90;;;;;;4898351;29;20036;-70
2021/12/31 23:57:30;;;;;;;198.40;71.75;;;10.10;99.90;;;;;;4898603;29;20044;-70
2021/12/31 23:59:57;;;;;;;284.30;90.60;;;10.10;99.90;;;;;;4898559;29;20036;-71
